Terminal Aerodrome Forecast
Issued by NWS

Home | Current Version | Previous Version | Text Only | Print | Product List | Glossary Off
Versions: 1 2 3 4 5 6 7 8 9 10 11 12 13 14 15 16 17 18 19 20 21 22 23 24 25 26 27 28

000
FTUS45 KGGW 231700
TAFOLF
TAF
KOLF 231720Z 2318/2418 10015KT P6SM SCT210
     FM240000 11017G26KT P6SM VCTS SCT100CB
     FM240600 07017KT P6SM VCSH SCT190
     FM241200 10009KT P6SM FEW230=

USA.gov is the U.S. government's official web portal to all federal, state and local government web resources and services.